Time;durP1;ratioP1;P1;durP2;ratioP2;P2;SDS_P1;SDS_P2;PMS_P1;PMS_P2;Temp;Humidity;BMP_temperature;BMP_pressure;BME280_temperature;BME280_humidity;BME280_pressure;Samples;Min_cycle;Max_cycle;Signal;HPM_P1;HPM_P2
2023/09/27 00:02:05;;;;;;;7.32;4.32;;;;;;;;;;13113224;22;20359;-92
2023/09/27 00:07:08;;;;;;;5.85;4.43;;;;;;;;;;13112902;22;20401;-92
2023/09/27 00:12:12;;;;;;;5.68;4.53;;;;;;;;;;13112042;22;20441;-92
2023/09/27 00:17:14;;;;;;;6.97;4.43;;;;;;;;;;13113518;22;20364;-92
2023/09/27 00:22:17;;;;;;;5.63;4.60;;;;;;;;;;13112457;22;20363;-92
2023/09/27 00:27:20;;;;;;;5.90;4.20;;;;;;;;;;13115484;22;20915;-92
2023/09/27 00:32:23;;;;;;;7.05;4.53;;;;;;;;;;13137768;22;20436;-87
2023/09/27 00:37:25;;;;;;;8.43;4.30;;;;;;;;;;13116241;22;20359;-91
2023/09/27 00:42:29;;;;;;;7.65;4.97;;;;;;;;;;13116071;22;20359;-92
2023/09/27 00:47:32;;;;;;;6.47;4.50;;;;;;;;;;13112931;22;20393;-92
2023/09/27 00:52:34;;;;;;;7.93;4.28;;;;;;;;;;13110827;22;20413;-92
2023/09/27 00:57:38;;;;;;;9.67;4.63;;;;;;;;;;13130236;22;20904;-92
2023/09/27 01:02:41;;;;;;;6.13;4.77;;;;;;;;;;13108671;22;20359;-92
2023/09/27 01:07:43;;;;;;;5.88;4.30;;;;;;;;;;13109376;22;20363;-92
2023/09/27 01:12:47;;;;;;;7.60;4.60;;;;;;;;;;13137716;22;20429;-92
2023/09/27 01:17:56;;;;;;;8.87;4.97;;;;;;;;;;13151445;22;20435;-92
2023/09/27 01:23:00;;;;;;;7.20;5.00;;;;;;;;;;13128716;22;20351;-91
2023/09/27 01:28:05;;;;;;;7.00;4.90;;;;;;;;;;13115441;22;20360;-92
2023/09/27 01:33:09;;;;;;;7.28;4.90;;;;;;;;;;13115410;22;20363;-92
2023/09/27 01:38:14;;;;;;;7.55;4.88;;;;;;;;;;13114599;22;20884;-92
2023/09/27 01:43:16;;;;;;;5.88;5.00;;;;;;;;;;13113444;22;20351;-92
2023/09/27 01:48:19;;;;;;;7.23;4.90;;;;;;;;;;13114962;22;20367;-92
2023/09/27 01:53:23;;;;;;;8.48;4.90;;;;;;;;;;13118362;22;20360;-92
2023/09/27 01:58:25;;;;;;;6.00;4.50;;;;;;;;;;13113847;22;20393;-92
2023/09/27 02:03:27;;;;;;;7.28;4.90;;;;;;;;;;13114818;22;20367;-92
2023/09/27 02:08:31;;;;;;;7.07;5.10;;;;;;;;;;13113666;22;20367;-91
2023/09/27 02:13:33;;;;;;;6.77;4.67;;;;;;;;;;13114871;22;20420;-92
2023/09/27 02:18:36;;;;;;;7.95;5.00;;;;;;;;;;13136016;22;20363;-91
2023/09/27 02:23:40;;;;;;;8.90;4.70;;;;;;;;;;13113832;22;20432;-91
2023/09/27 02:28:43;;;;;;;7.40;4.73;;;;;;;;;;13113987;22;20371;-92
2023/09/27 02:33:45;;;;;;;5.15;4.38;;;;;;;;;;13114094;22;20424;-91
2023/09/27 02:38:49;;;;;;;7.72;4.65;;;;;;;;;;13114123;22;20359;-92
2023/09/27 02:43:51;;;;;;;9.10;4.50;;;;;;;;;;13113894;22;20355;-92
2023/09/27 02:48:53;;;;;;;6.95;4.10;;;;;;;;;;13113160;22;20375;-92
2023/09/27 02:53:57;;;;;;;7.32;4.28;;;;;;;;;;13111586;22;20421;-93
2023/09/27 02:58:59;;;;;;;5.70;4.18;;;;;;;;;;13113273;22;20375;-91
2023/09/27 03:04:02;;;;;;;6.43;4.60;;;;;;;;;;13113149;22;20385;-92
2023/09/27 03:09:08;;;;;;;6.77;4.27;;;;;;;;;;13138812;22;20375;-92
2023/09/27 03:14:11;;;;;;;5.60;4.07;;;;;;;;;;13113649;22;20363;-92
2023/09/27 03:19:13;;;;;;;7.77;4.10;;;;;;;;;;13112407;22;20355;-91
2023/09/27 03:24:17;;;;;;;7.03;4.03;;;;;;;;;;13115520;22;20355;-92
2023/09/27 03:29:20;;;;;;;6.53;4.20;;;;;;;;;;13112745;22;20408;-92
2023/09/27 03:34:22;;;;;;;6.32;3.83;;;;;;;;;;13112190;22;20397;-92
2023/09/27 03:39:28;;;;;;;5.97;3.90;;;;;;;;;;13133716;22;20351;-91
2023/09/27 03:44:30;;;;;;;6.33;4.03;;;;;;;;;;13112592;22;20385;-93
2023/09/27 03:49:33;;;;;;;5.95;4.20;;;;;;;;;;13134350;22;20436;-92
2023/09/27 03:54:37;;;;;;;6.83;4.03;;;;;;;;;;13133707;22;20393;-92
2023/09/27 03:59:39;;;;;;;6.60;4.00;;;;;;;;;;13113399;22;20363;-92
2023/09/27 04:04:41;;;;;;;6.85;4.53;;;;;;;;;;13113524;22;20355;-92
2023/09/27 04:09:45;;;;;;;8.40;4.53;;;;;;;;;;13116386;22;20379;-92
2023/09/27 04:14:48;;;;;;;6.10;3.93;;;;;;;;;;13139195;22;20363;-92
2023/09/27 04:19:51;;;;;;;6.60;4.70;;;;;;;;;;13115131;22;20843;-91
2023/09/27 04:24:55;;;;;;;7.47;4.78;;;;;;;;;;13115588;22;20360;-91
2023/09/27 04:29:58;;;;;;;9.45;4.32;;;;;;;;;;13119432;22;20375;-91
2023/09/27 04:35:01;;;;;;;6.97;4.07;;;;;;;;;;13115817;22;20416;-92
2023/09/27 04:40:11;;;;;;;5.57;4.00;;;;;;;;;;13115722;22;20355;-91
2023/09/27 04:45:14;;;;;;;7.13;4.38;;;;;;;;;;13115038;22;20389;-92
2023/09/27 04:50:16;;;;;;;6.18;4.18;;;;;;;;;;13118349;22;20433;-93
2023/09/27 04:55:20;;;;;;;7.68;4.35;;;;;;;;;;13114901;22;20787;-91
2023/09/27 05:00:23;;;;;;;8.20;4.15;;;;;;;;;;13133893;22;20359;-92
2023/09/27 05:05:25;;;;;;;6.65;4.32;;;;;;;;;;13117131;22;20355;-92
2023/09/27 05:10:29;;;;;;;10.82;5.65;;;;;;;;;;13137714;22;20835;-92
2023/09/27 05:15:33;;;;;;;13.38;7.30;;;;;;;;;;13114334;22;20363;-92
2023/09/27 05:20:36;;;;;;;9.80;5.88;;;;;;;;;;13113475;22;20375;-92
2023/09/27 05:25:41;;;;;;;12.17;7.00;;;;;;;;;;13113263;22;20367;-93
2023/09/27 05:30:43;;;;;;;8.27;5.68;;;;;;;;;;13114597;22;20700;-94
2023/09/27 05:35:50;;;;;;;8.50;5.00;;;;;;;;;;13111008;22;20746;-95
2023/09/27 05:40:53;;;;;;;7.70;5.22;;;;;;;;;;13111767;22;20359;-93
2023/09/27 05:45:57;;;;;;;6.07;4.60;;;;;;;;;;13113961;22;20356;-94
2023/09/27 05:50:59;;;;;;;7.15;4.93;;;;;;;;;;13110696;22;20387;-95
2023/09/27 05:56:03;;;;;;;6.57;4.47;;;;;;;;;;13113695;22;20401;-94
2023/09/27 06:01:07;;;;;;;8.85;4.97;;;;;;;;;;13112363;22;20360;-95
2023/09/27 06:06:09;;;;;;;7.55;4.68;;;;;;;;;;13112220;22;20363;-94
2023/09/27 06:11:13;;;;;;;5.90;4.22;;;;;;;;;;13107966;22;20654;-88
2023/09/27 06:16:17;;;;;;;6.07;4.47;;;;;;;;;;13103296;22;20365;-85
2023/09/27 06:21:20;;;;;;;9.75;4.65;;;;;;;;;;12991923;22;20401;-86
2023/09/27 06:26:24;;;;;;;6.90;4.35;;;;;;;;;;12978927;22;20390;-86
2023/09/27 06:31:26;;;;;;;6.45;4.55;;;;;;;;;;12995735;22;20432;-86
2023/09/27 06:36:33;;;;;;;9.40;4.85;;;;;;;;;;12977335;22;20818;-86
2023/09/27 06:41:38;;;;;;;6.72;4.25;;;;;;;;;;12975917;22;20420;-87
2023/09/27 06:46:40;;;;;;;6.80;4.10;;;;;;;;;;12977008;22;20367;-87
2023/09/27 06:51:43;;;;;;;6.53;3.88;;;;;;;;;;12998963;22;20378;-87
2023/09/27 06:56:47;;;;;;;5.85;3.70;;;;;;;;;;12975341;22;20363;-88
2023/09/27 07:01:49;;;;;;;5.85;3.75;;;;;;;;;;12976912;22;20366;-87
2023/09/27 07:06:51;;;;;;;6.30;3.22;;;;;;;;;;12976814;22;20366;-87
2023/09/27 07:11:55;;;;;;;5.50;3.43;;;;;;;;;;12977821;22;20850;-87
2023/09/27 07:16:57;;;;;;;5.20;3.63;;;;;;;;;;12985732;22;20370;-88
2023/09/27 07:22:04;;;;;;;9.77;3.47;;;;;;;;;;12978139;22;20404;-87
2023/09/27 07:27:08;;;;;;;7.15;3.55;;;;;;;;;;13005707;22;20393;-87
2023/09/27 07:32:11;;;;;;;4.47;3.08;;;;;;;;;;12975372;22;20379;-87
2023/09/27 07:37:14;;;;;;;3.97;3.05;;;;;;;;;;12970239;22;20678;-87
2023/09/27 07:42:17;;;;;;;5.28;3.03;;;;;;;;;;12980877;22;20888;-87
2023/09/27 07:47:20;;;;;;;6.30;3.43;;;;;;;;;;12981296;22;20401;-86
2023/09/27 07:52:22;;;;;;;3.75;3.15;;;;;;;;;;12981131;22;20382;-87
2023/09/27 07:57:26;;;;;;;6.70;3.17;;;;;;;;;;12979591;22;20367;-86
2023/09/27 08:02:28;;;;;;;4.20;2.90;;;;;;;;;;12981332;22;20425;-87
2023/09/27 08:07:31;;;;;;;6.00;2.80;;;;;;;;;;12980396;22;20366;-87
2023/09/27 08:12:38;;;;;;;5.93;3.20;;;;;;;;;;12979748;22;20378;-86
2023/09/27 08:17:41;;;;;;;5.65;2.80;;;;;;;;;;12979437;22;20424;-87
2023/09/27 08:22:44;;;;;;;5.32;2.97;;;;;;;;;;13002138;22;20358;-87
2023/09/27 08:27:50;;;;;;;5.53;2.90;;;;;;;;;;12981561;22;20483;-87
2023/09/27 08:32:52;;;;;;;7.70;3.30;;;;;;;;;;12994987;22;20386;-87
2023/09/27 08:37:55;;;;;;;3.80;2.90;;;;;;;;;;12981603;22;20430;-87
2023/09/27 08:42:59;;;;;;;6.03;3.10;;;;;;;;;;12981367;22;20420;-87
2023/09/27 08:48:02;;;;;;;8.25;3.25;;;;;;;;;;12980292;22;20448;-87
2023/09/27 08:53:05;;;;;;;4.32;2.60;;;;;;;;;;12952248;22;20387;-86
2023/09/27 08:58:11;;;;;;;4.90;3.03;;;;;;;;;;12979155;22;20421;-88
2023/09/27 09:03:14;;;;;;;4.20;2.70;;;;;;;;;;12979749;22;20741;-87
2023/09/27 09:08:16;;;;;;;3.73;2.60;;;;;;;;;;12979487;22;20441;-88
2023/09/27 09:13:22;;;;;;;6.47;3.17;;;;;;;;;;12980378;22;20386;-88
2023/09/27 09:18:31;;;;;;;6.30;2.90;;;;;;;;;;12978464;22;20371;-87
2023/09/27 09:23:35;;;;;;;4.07;3.00;;;;;;;;;;12979088;22;20366;-87
2023/09/27 09:28:55;;;;;;;4.97;2.83;;;;;;;;;;12978976;22;20370;-87
2023/09/27 09:34:04;;;;;;;6.22;3.17;;;;;;;;;;12986565;22;20413;-88
2023/09/27 09:39:13;;;;;;;7.10;3.10;;;;;;;;;;12960242;22;21645;-88
2023/09/27 09:44:20;;;;;;;7.03;3.30;;;;;;;;;;12978380;22;20363;-87
2023/09/27 09:49:23;;;;;;;7.47;3.10;;;;;;;;;;12978091;22;20421;-88
2023/09/27 09:54:29;;;;;;;4.03;2.65;;;;;;;;;;12978306;22;20417;-87
2023/09/27 09:59:38;;;;;;;5.25;2.97;;;;;;;;;;12977307;22;20415;-86
2023/09/27 10:04:41;;;;;;;7.10;2.77;;;;;;;;;;12978435;22;20371;-88
2023/09/27 10:09:44;;;;;;;6.63;2.70;;;;;;;;;;12980535;22;20818;-78
2023/09/27 10:14:49;;;;;;;4.88;2.92;;;;;;;;;;12977656;22;20679;-86
2023/09/27 10:20:13;;;;;;;7.03;2.90;;;;;;;;;;12977519;22;20374;-86
2023/09/27 10:25:35;;;;;;;6.18;3.05;;;;;;;;;;12968970;22;20424;-86
2023/09/27 10:31:07;;;;;;;7.05;3.00;;;;;;;;;;12975649;22;20378;-87
2023/09/27 10:36:30;;;;;;;4.32;2.80;;;;;;;;;;12977668;22;20366;-86
2023/09/27 10:41:48;;;;;;;3.30;2.60;;;;;;;;;;13000644;22;20417;-86
2023/09/27 10:46:52;;;;;;;4.97;2.73;;;;;;;;;;12992327;22;20370;-86
2023/09/27 10:51:55;;;;;;;5.38;2.88;;;;;;;;;;12977095;22;20383;-86
2023/09/27 10:56:57;;;;;;;6.77;2.93;;;;;;;;;;12977766;22;20408;-88
2023/09/27 11:02:02;;;;;;;5.88;2.80;;;;;;;;;;12978126;22;20830;-87
2023/09/27 11:07:05;;;;;;;4.82;2.90;;;;;;;;;;12977751;22;20401;-86
2023/09/27 11:12:07;;;;;;;6.35;2.70;;;;;;;;;;12970650;22;20386;-86
2023/09/27 11:17:22;;;;;;;5.47;2.70;;;;;;;;;;12966990;22;20404;-86
2023/09/27 11:22:26;;;;;;;8.03;3.00;;;;;;;;;;12967876;22;20877;-87
2023/09/27 11:27:28;;;;;;;8.25;3.20;;;;;;;;;;12954472;22;20483;-88
2023/09/27 11:32:50;;;;;;;4.60;2.70;;;;;;;;;;12953864;22;20447;-88
2023/09/27 11:38:10;;;;;;;6.20;2.60;;;;;;;;;;12949498;22;20557;-88
2023/09/27 11:43:12;;;;;;;6.07;2.70;;;;;;;;;;12957265;22;20400;-88
2023/09/27 11:48:17;;;;;;;4.13;2.70;;;;;;;;;;12948516;22;20374;-89
2023/09/27 11:53:20;;;;;;;3.65;2.50;;;;;;;;;;12980710;22;20390;-89
2023/09/27 11:58:22;;;;;;;6.40;2.88;;;;;;;;;;12963380;22;20386;-89
2023/09/27 12:03:28;;;;;;;4.68;2.40;;;;;;;;;;12967104;22;20370;-87
2023/09/27 12:08:30;;;;;;;6.13;2.33;;;;;;;;;;12970173;22;20366;-86
2023/09/27 12:13:32;;;;;;;5.70;2.83;;;;;;;;;;12972804;22;21351;-89
2023/09/27 12:18:36;;;;;;;6.10;2.60;;;;;;;;;;12983748;22;20854;-90
2023/09/27 12:23:38;;;;;;;4.55;2.58;;;;;;;;;;12963895;22;20390;-88
2023/09/27 12:28:41;;;;;;;4.03;2.60;;;;;;;;;;12983519;22;20375;-88
2023/09/27 12:33:59;;;;;;;6.53;2.50;;;;;;;;;;12970480;22;20386;-88
2023/09/27 12:39:02;;;;;;;6.60;2.90;;;;;;;;;;12970772;22;20436;-89
2023/09/27 12:44:05;;;;;;;8.35;2.83;;;;;;;;;;12974463;22;20834;-89
2023/09/27 12:49:09;;;;;;;5.40;2.37;;;;;;;;;;12970688;22;20347;-88
2023/09/27 12:54:13;;;;;;;4.43;2.42;;;;;;;;;;12978192;22;20440;-88
2023/09/27 12:59:15;;;;;;;9.13;2.60;;;;;;;;;;12980706;22;20907;-89
2023/09/27 13:04:19;;;;;;;4.63;2.33;;;;;;;;;;12996437;22;20421;-89
2023/09/27 13:09:22;;;;;;;5.63;2.42;;;;;;;;;;12978811;22;20370;-88
2023/09/27 13:14:24;;;;;;;6.25;2.50;;;;;;;;;;12977978;22;20431;-89
2023/09/27 13:19:28;;;;;;;3.60;2.33;;;;;;;;;;12974793;22;20432;-89
2023/09/27 13:24:31;;;;;;;7.60;2.90;;;;;;;;;;12978785;22;20401;-89
2023/09/27 13:29:33;;;;;;;5.65;2.45;;;;;;;;;;12978014;22;20444;-89
2023/09/27 13:34:37;;;;;;;7.00;2.83;;;;;;;;;;12975259;22;20870;-89
2023/09/27 13:39:39;;;;;;;5.32;2.72;;;;;;;;;;12977061;22;20359;-90
2023/09/27 13:44:41;;;;;;;6.87;2.80;;;;;;;;;;12980053;22;20371;-88
2023/09/27 13:49:46;;;;;;;4.50;2.43;;;;;;;;;;12978620;22;20371;-89
2023/09/27 13:54:48;;;;;;;6.25;2.60;;;;;;;;;;12980743;22;20443;-89
2023/09/27 13:59:50;;;;;;;6.93;2.67;;;;;;;;;;12980813;22;20370;-89
2023/09/27 14:04:54;;;;;;;6.93;2.20;;;;;;;;;;13001095;22;20424;-90
2023/09/27 14:09:57;;;;;;;2.58;2.20;;;;;;;;;;12992119;22;20358;-89
2023/09/27 14:14:59;;;;;;;4.35;2.53;;;;;;;;;;12992900;22;20383;-90
2023/09/27 14:20:04;;;;;;;6.18;2.72;;;;;;;;;;12978235;22;20378;-89
2023/09/27 14:25:08;;;;;;;4.27;2.70;;;;;;;;;;12999402;22;20367;-89
2023/09/27 14:30:11;;;;;;;5.10;3.30;;;;;;;;;;12977711;22;20397;-89
2023/09/27 14:35:15;;;;;;;5.60;2.45;;;;;;;;;;12969736;22;20854;-89
2023/09/27 14:40:17;;;;;;;5.75;2.70;;;;;;;;;;12976846;22;20393;-89
2023/09/27 14:45:20;;;;;;;6.30;2.92;;;;;;;;;;12977420;22;20370;-88
2023/09/27 14:50:24;;;;;;;4.60;2.50;;;;;;;;;;12976270;22;20908;-87
2023/09/27 14:55:30;;;;;;;4.03;2.60;;;;;;;;;;12970819;22;20440;-87
2023/09/27 15:00:33;;;;;;;4.97;3.00;;;;;;;;;;12969080;22;20378;-88
2023/09/27 15:05:38;;;;;;;3.73;2.50;;;;;;;;;;12965433;22;20436;-88
2023/09/27 15:10:41;;;;;;;6.43;2.50;;;;;;;;;;12969572;22;20942;-88
2023/09/27 15:15:43;;;;;;;4.95;2.75;;;;;;;;;;12969195;22;20386;-87
2023/09/27 15:20:49;;;;;;;6.00;2.40;;;;;;;;;;12977073;22;20846;-88
2023/09/27 15:25:51;;;;;;;4.43;2.30;;;;;;;;;;12970158;22;20378;-88
2023/09/27 15:30:53;;;;;;;5.33;2.13;;;;;;;;;;12972752;22;20538;-88
2023/09/27 15:35:57;;;;;;;5.57;2.13;;;;;;;;;;12965353;22;20386;-88
2023/09/27 15:41:00;;;;;;;4.00;2.10;;;;;;;;;;12959926;22;20378;-88
2023/09/27 15:46:04;;;;;;;5.60;2.20;;;;;;;;;;12960033;22;20383;-89
2023/09/27 15:51:09;;;;;;;5.65;2.20;;;;;;;;;;12964130;22;20413;-90
2023/09/27 15:56:11;;;;;;;4.22;2.30;;;;;;;;;;12965008;22;20715;-90
2023/09/27 16:01:14;;;;;;;5.70;2.10;;;;;;;;;;12969876;22;20675;-89
2023/09/27 16:06:18;;;;;;;5.65;2.05;;;;;;;;;;12990740;22;20370;-90
2023/09/27 16:11:26;;;;;;;5.23;2.77;;;;;;;;;;12971716;22;20815;-89
2023/09/27 16:16:29;;;;;;;5.53;2.30;;;;;;;;;;12966787;22;20386;-88
2023/09/27 16:21:33;;;;;;;5.18;2.47;;;;;;;;;;12967689;22;20393;-89
2023/09/27 16:26:35;;;;;;;4.00;2.20;;;;;;;;;;12962669;22;20382;-88
2023/09/27 16:31:42;;;;;;;4.77;2.40;;;;;;;;;;12969773;22;20425;-90
2023/09/27 16:36:46;;;;;;;4.00;2.40;;;;;;;;;;12953280;22;20847;-89
2023/09/27 16:41:49;;;;;;;3.90;2.30;;;;;;;;;;12946449;22;20386;-90
2023/09/27 16:46:51;;;;;;;5.27;2.60;;;;;;;;;;12959005;22;20436;-89
2023/09/27 16:51:55;;;;;;;4.77;2.60;;;;;;;;;;12953360;22;20448;-89
2023/09/27 16:56:59;;;;;;;8.07;3.00;;;;;;;;;;12969557;22;20704;-88
2023/09/27 17:02:01;;;;;;;6.53;3.03;;;;;;;;;;12969269;22;20367;-89
2023/09/27 17:07:05;;;;;;;6.15;2.40;;;;;;;;;;12966229;22;20382;-89
2023/09/27 17:12:07;;;;;;;6.33;3.17;;;;;;;;;;12973067;22;20401;-88
2023/09/27 17:17:10;;;;;;;7.65;3.03;;;;;;;;;;12954680;22;21074;-89
2023/09/27 17:22:14;;;;;;;9.85;3.17;;;;;;;;;;12950087;22;20379;-89
2023/09/27 17:27:16;;;;;;;5.80;3.00;;;;;;;;;;12964946;22;20411;-88
2023/09/27 17:32:19;;;;;;;8.38;3.10;;;;;;;;;;12972884;22;20374;-89
2023/09/27 17:37:23;;;;;;;6.80;2.90;;;;;;;;;;12997664;22;20436;-90
2023/09/27 17:42:25;;;;;;;7.43;3.28;;;;;;;;;;12975605;22;20416;-89
2023/09/27 17:47:28;;;;;;;6.32;2.83;;;;;;;;;;12987621;22;20366;-88
2023/09/27 17:52:32;;;;;;;10.23;3.35;;;;;;;;;;12974922;22;20817;-89
2023/09/27 17:57:34;;;;;;;5.15;3.05;;;;;;;;;;12971849;22;20411;-89
2023/09/27 18:02:36;;;;;;;4.78;2.90;;;;;;;;;;12971818;22;20436;-89
2023/09/27 18:07:40;;;;;;;6.10;2.92;;;;;;;;;;12969911;22;20382;-89
2023/09/27 18:12:43;;;;;;;6.03;3.28;;;;;;;;;;12972387;22;20436;-88
2023/09/27 18:17:46;;;;;;;6.95;3.22;;;;;;;;;;12967607;22;20382;-88
2023/09/27 18:22:49;;;;;;;6.38;3.50;;;;;;;;;;12970531;22;20382;-88
2023/09/27 18:27:52;;;;;;;11.10;3.87;;;;;;;;;;12967800;22;20408;-89
2023/09/27 18:32:54;;;;;;;7.43;3.20;;;;;;;;;;12978773;22;20363;-89
2023/09/27 18:37:59;;;;;;;4.57;3.50;;;;;;;;;;12969616;22;20912;-88
2023/09/27 18:43:02;;;;;;;8.20;3.80;;;;;;;;;;12991652;22;20386;-88
2023/09/27 18:48:07;;;;;;;8.23;4.00;;;;;;;;;;12968696;22;20409;-88
2023/09/27 18:53:11;;;;;;;7.93;4.00;;;;;;;;;;12965642;22;20451;-87
2023/09/27 18:58:14;;;;;;;5.75;3.55;;;;;;;;;;12981659;22;20401;-88
2023/09/27 19:03:16;;;;;;;5.57;3.40;;;;;;;;;;12964580;22;20402;-87
2023/09/27 19:08:20;;;;;;;5.43;3.13;;;;;;;;;;12986579;22;20432;-88
2023/09/27 19:13:22;;;;;;;6.82;3.33;;;;;;;;;;12963283;22;20371;-87
2023/09/27 19:18:25;;;;;;;7.10;3.30;;;;;;;;;;12966026;22;20432;-88
2023/09/27 19:23:30;;;;;;;4.20;3.10;;;;;;;;;;12963682;22;20903;-87
2023/09/27 19:28:33;;;;;;;5.10;3.38;;;;;;;;;;12968279;22;20480;-86
2023/09/27 19:33:41;;;;;;;4.97;3.17;;;;;;;;;;12974953;22;20386;-87
2023/09/27 19:38:45;;;;;;;4.65;3.20;;;;;;;;;;12970176;22;20383;-89
2023/09/27 19:43:47;;;;;;;5.43;3.40;;;;;;;;;;12970092;22;20421;-89
2023/09/27 19:48:49;;;;;;;5.73;3.23;;;;;;;;;;12994389;22;20379;-88
2023/09/27 19:53:54;;;;;;;4.53;3.10;;;;;;;;;;12968686;22;20464;-88
2023/09/27 19:58:56;;;;;;;5.23;3.47;;;;;;;;;;12966848;22;20382;-88
2023/09/27 20:03:59;;;;;;;4.90;3.22;;;;;;;;;;12969070;22;20386;-89
2023/09/27 20:09:03;;;;;;;4.60;3.00;;;;;;;;;;12970072;22;20436;-88
2023/09/27 20:14:06;;;;;;;4.77;3.20;;;;;;;;;;12968423;22;20397;-88
2023/09/27 20:19:08;;;;;;;6.15;3.40;;;;;;;;;;12988038;22;20842;-88
2023/09/27 20:24:12;;;;;;;6.80;2.93;;;;;;;;;;12969736;22;20429;-88
2023/09/27 20:29:15;;;;;;;5.45;3.33;;;;;;;;;;12968690;22;20379;-89
2023/09/27 20:34:17;;;;;;;3.67;3.00;;;;;;;;;;12970987;22;20448;-88
2023/09/27 20:39:21;;;;;;;7.68;3.17;;;;;;;;;;12977757;22;20375;-88
2023/09/27 20:44:23;;;;;;;6.03;3.03;;;;;;;;;;12967641;22;20386;-88
2023/09/27 20:49:26;;;;;;;5.90;2.90;;;;;;;;;;12999362;22;20366;-88
2023/09/27 20:54:30;;;;;;;5.75;3.00;;;;;;;;;;12983354;22;20374;-88
2023/09/27 20:59:34;;;;;;;4.45;3.15;;;;;;;;;;12969258;22;20436;-88
2023/09/27 21:04:36;;;;;;;5.88;3.10;;;;;;;;;;12989920;22;20921;-88
2023/09/27 21:09:40;;;;;;;7.03;3.60;;;;;;;;;;12970264;22;20437;-88
2023/09/27 21:14:43;;;;;;;7.17;3.50;;;;;;;;;;12969503;22;20383;-86
2023/09/27 21:19:45;;;;;;;5.22;3.00;;;;;;;;;;12970502;22;20857;-88
2023/09/27 21:24:49;;;;;;;5.07;3.00;;;;;;;;;;12971097;22;20378;-88
2023/09/27 21:29:51;;;;;;;5.75;3.20;;;;;;;;;;12969522;22;20386;-87
2023/09/27 21:34:54;;;;;;;3.78;2.97;;;;;;;;;;12979087;22;20413;-88
2023/09/27 21:39:57;;;;;;;5.07;3.20;;;;;;;;;;12977371;22;20420;-87
2023/09/27 21:45:00;;;;;;;7.18;3.20;;;;;;;;;;12979085;22;20420;-88
2023/09/27 21:50:03;;;;;;;8.85;3.63;;;;;;;;;;12978538;22;20370;-87
2023/09/27 21:55:08;;;;;;;6.23;3.93;;;;;;;;;;12989165;22;20382;-87
2023/09/27 22:00:19;;;;;;;6.72;3.72;;;;;;;;;;13001555;22;20745;-88
2023/09/27 22:05:23;;;;;;;6.47;3.53;;;;;;;;;;13004041;22;20346;-87
2023/09/27 22:10:34;;;;;;;5.63;3.42;;;;;;;;;;12998034;22;20394;-88
2023/09/27 22:15:36;;;;;;;6.45;4.20;;;;;;;;;;12979945;22;20375;-88
2023/09/27 22:20:38;;;;;;;6.63;3.53;;;;;;;;;;12979201;22;20440;-87
2023/09/27 22:25:43;;;;;;;4.87;3.70;;;;;;;;;;12982706;22;20367;-89
2023/09/27 22:30:48;;;;;;;4.70;3.55;;;;;;;;;;12979137;22;20401;-88
2023/09/27 22:35:51;;;;;;;5.25;3.65;;;;;;;;;;13000856;22;20370;-88
2023/09/27 22:40:56;;;;;;;4.90;3.60;;;;;;;;;;12980046;22;20363;-86
2023/09/27 22:45:59;;;;;;;4.15;3.50;;;;;;;;;;12977999;22;20428;-88
2023/09/27 22:51:03;;;;;;;6.07;3.33;;;;;;;;;;12999572;22;20366;-88
2023/09/27 22:56:07;;;;;;;6.47;3.53;;;;;;;;;;12990405;22;20503;-88
2023/09/27 23:01:27;;;;;;;7.10;3.53;;;;;;;;;;12979766;22;20367;-87
2023/09/27 23:06:30;;;;;;;6.10;3.80;;;;;;;;;;12979513;22;20393;-87
2023/09/27 23:11:40;;;;;;;6.32;3.67;;;;;;;;;;12979156;22;20362;-87
2023/09/27 23:16:45;;;;;;;6.68;4.15;;;;;;;;;;12979717;22;20552;-87
2023/09/27 23:21:48;;;;;;;5.28;4.05;;;;;;;;;;12980390;22;20363;-87
2023/09/27 23:27:01;;;;;;;5.47;3.65;;;;;;;;;;12978984;22;20366;-89
2023/09/27 23:32:14;;;;;;;5.05;3.70;;;;;;;;;;12978150;22;20363;-88
2023/09/27 23:37:30;;;;;;;8.63;4.57;;;;;;;;;;12978950;22;20408;-87
2023/09/27 23:42:35;;;;;;;5.35;3.78;;;;;;;;;;13000853;22;20354;-88
2023/09/27 23:47:43;;;;;;;5.35;4.10;;;;;;;;;;12977491;22;20378;-88
2023/09/27 23:52:46;;;;;;;5.30;3.90;;;;;;;;;;12979576;22;20686;-87
2023/09/27 23:57:50;;;;;;;6.30;4.13;;;;;;;;;;13011847;22;20382;-88
